Flight Track Log - Related Links

Times and Time Zones

All times are in EDT time to prevent confusion due to time zone crossing. See the N1944E flight status page for this flight to view local times or setup timezone preferences in your user account.

Time Position Orientation Groundspeed Altitude Reporting Facility
EDT Latitude Longitude Course Direction KTS MPH feet Rate Location/Type
Fri 06:53:27 PM 47.6644 -104.3222 241° Southwest 120 138 5,000  Level Salt Lake Center
Fri 06:54:29 PM 47.6497 -104.3633 242° Southwest 118 136 6,000 878 Climbing Salt Lake Center
Fri 06:55:30 PM 47.6333 -104.4053 240° Southwest 117 135 6,800 927 Climbing Salt Lake Center
Fri 06:56:32 PM 47.6119 -104.4586 239° Southwest 121 139 7,900 968 Climbing Salt Lake Center
Fri 06:57:34 PM 47.5939 -104.5056 240° Southwest 126 145 8,800 878 Climbing Salt Lake Center
Fri 06:58:35 PM 47.5756 -104.5539 241° Southwest 131 151 9,700 823 Climbing Salt Lake Center
Fri 06:59:00 PM 47.5555 -104.5656 241° Southwest  Level Estimated
Fri 06:59:38 PM 47.5564 -104.6044 241° Southwest 136 157 10,500  Level Salt Lake Center
Fri 07:00:40 PM 47.5367 -104.6553 240° Southwest 140 161 11,500 878 Climbing Salt Lake Center
Fri 07:01:41 PM 47.5142 -104.7050 236° Southwest 142 163 12,300 878 Climbing Salt Lake Center
Fri 07:02:43 PM 47.4878 -104.7650 237° Southwest 144 166 13,300 726 Climbing Salt Lake Center
Fri 07:03:45 PM 47.4653 -104.8164 237° Southwest 146 168 13,800 293 Climbing Salt Lake Center
Fri 07:04:46 PM 47.4400 -104.8783 239° Southwest 159 183 13,900 49 Climbing Salt Lake Center
Fri 07:05:48 PM 47.4139 -104.9461 240° Southwest 176 203 13,900  Level Salt Lake Center
Fri 07:06:50 PM 47.3878 -105.0122 240° Southwest 183 211 13,900  Level Salt Lake Center
Fri 07:07:51 PM 47.3625 -105.0767 240° Southwest 184 212 13,900  Level Salt Lake Center
Fri 07:08:53 PM 47.3350 -105.1397 237° Southwest 184 212 13,900  Level Salt Lake Center
Fri 07:09:55 PM 47.3022 -105.2178 238° Southwest 185 213 13,900  Level Salt Lake Center
Fri 07:10:56 PM 47.2728 -105.2833 237° Southwest 188 216 13,900  Level Salt Lake Center
Fri 07:11:58 PM 47.2456 -105.3461 237° Southwest 187 215 13,900  Level Salt Lake Center
Fri 07:13:00 PM 47.2169 -105.4061 235° Southwest 184 212 13,900  Level Salt Lake Center
Fri 07:14:02 PM 47.1922 -105.4672 239° Southwest 180 207 13,900  Level Salt Lake Center
Fri 07:15:03 PM 47.1667 -105.5269 238° Southwest 176 203 13,900  Level Salt Lake Center
Fri 07:16:05 PM 47.1394 -105.5875 237° Southwest 175 201 13,900  Level Salt Lake Center
Fri 07:17:07 PM 47.1083 -105.6608 238° Southwest 176 203 13,900 145 Level Salt Lake Center
Fri 07:18:09 PM 47.0828 -105.7192 237° Southwest 174 200 14,200 293 Climbing Salt Lake Center
Fri 07:19:10 PM 47.0589 -105.7733 237° Southwest 168 193 14,500 244 Climbing Salt Lake Center
Fri 07:20:12 PM 47.0361 -105.8325 241° Southwest 166 191 14,700 194 Climbing Salt Lake Center
Fri 07:21:14 PM 47.0119 -105.8928 240° Southwest 168 193 14,900 97 Climbing Salt Lake Center
Fri 07:22:16 PM 46.9847 -105.9550 237° Southwest 174 200 14,900  Level Salt Lake Center
Fri 07:23:17 PM 46.9544 -106.0167 234° Southwest 181 208 14,900  Level Salt Lake Center
Fri 07:24:19 PM 46.9214 -106.0936 238° Southwest 184 212 14,900  Level Salt Lake Center
Fri 07:25:21 PM 46.8933 -106.1583 238° Southwest 187 215 14,900  Level Salt Lake Center
Fri 07:26:23 PM 46.8658 -106.2233 238° Southwest 188 216 14,900  Level Salt Lake Center
Fri 07:27:24 PM 46.8375 -106.2872 237° Southwest 188 216 14,900  Level Salt Lake Center
Fri 07:28:26 PM 46.8078 -106.3539 237° Southwest 191 220 14,900  Level Salt Lake Center
Fri 07:29:28 PM 46.7828 -106.4203 241° Southwest 190 219 14,900  Level Salt Lake Center
Fri 07:30:30 PM 46.7539 -106.4869 238° Southwest 192 221 14,900  Level Salt Lake Center
Fri 07:31:32 PM 46.7150 -106.5667 235° Southwest 198 228 14,900  Level Salt Lake Center
Fri 07:32:33 PM 46.6836 -106.6317 235° Southwest 198 228 14,900  Level Salt Lake Center
Fri 07:33:35 PM 46.6600 -106.6989 243° Southwest 191 220 14,900  Level Salt Lake Center
Fri 07:34:37 PM 46.6331 -106.7622 238° Southwest 191 220 14,900  Level Salt Lake Center
Fri 07:35:39 PM 46.5986 -106.8392 237° Southwest 190 219 14,900  Level Salt Lake Center
Fri 07:36:41 PM 46.5689 -106.9011 235° Southwest 188 216 14,900  Level Salt Lake Center
Fri 07:37:42 PM 46.5389 -106.9611 234° Southwest 186 214 14,900  Level Salt Lake Center
Fri 07:38:44 PM 46.5144 -107.0142 236° Southwest 186 214 14,900 14 Level Salt Lake Center
Fri 07:40:00 PM 46.4776 -107.0900 235° Southwest  Level FlightAware Approximate
Fri 07:44:42 PM 46.3350 -107.4153 242° Southwest 189 217 15,000  Level Salt Lake Center
Fri 07:45:44 PM 46.3064 -107.4819 238° Southwest 195 224 14,700 -339 Descending Salt Lake Center
Fri 07:46:46 PM 46.2697 -107.5603 236° Southwest 208 239 14,300 -387 Descending Salt Lake Center
Fri 07:47:00 PM 46.2716 -107.5068 234° Southwest  Level FlightAware Approximate
Fri 07:47:48 PM 46.2392 -107.6278 237° Southwest 204 235 13,900  Level Salt Lake Center
Fri 07:48:00 PM 46.2467 -107.5701 242° Southwest  Level FlightAware Approximate
Fri 07:48:49 PM 46.2083 -107.6953 237° Southwest 202 232 13,300  Level Salt Lake Center
Fri 07:49:00 PM 46.2226 -107.6341 242° Southwest  Level FlightAware Approximate
Fri 07:49:51 PM 46.1728 -107.7706 236° Southwest 212 244 12,500  Level Salt Lake Center
Fri 07:50:53 PM 46.1394 -107.8411 236° Southwest 215 247 11,800 -683 Descending Salt Lake Center
Fri 07:51:54 PM 46.1067 -107.9142 237° Southwest 205 236 11,100 -732 Descending Salt Lake Center
Fri 07:52:56 PM 46.0747 -107.9828 236° Southwest 208 239 10,300 -774 Descending Salt Lake Center
Fri 07:53:58 PM 46.0400 -108.0503 233° Southwest 198 228 9,500 -927 Descending Salt Lake Center
Fri 07:54:59 PM 46.0097 -108.1142 236° Southwest 194 223 8,400 -780 Descending Salt Lake Center
Fri 07:56:01 PM 45.9683 -108.1656 221° Southwest 192 221 7,900 -390 Descending Salt Lake Center
Fri 07:57:02 PM 45.9178 -108.1781 190° South 187 215 7,600 -439 Descending Salt Lake Center
Fri 07:58:04 PM 45.8675 -108.1900 189° South 185 213 7,000 -823 Descending Salt Lake Center
Fri 07:59:06 PM 45.8339 -108.2478 230° Southwest 175 201 5,900 -816 Descending Salt Lake Center
Fri 08:00:09 PM 45.8078 -108.3094 239° Southwest 168 193 5,300 -432 Descending Salt Lake Center
Fri 08:01:11 PM 45.8008 -108.3667 260° West 148 170 5,000 -339 Descending Salt Lake Center
Fri 08:02:13 PM 45.7964 -108.4236 264° West 147 169 4,600 -341 Descending Salt Lake Center
Fri 08:03:14 PM 45.7944 -108.4794 267° West 133 153 4,300 -488 Descending Salt Lake Center
Fri 08:04:16 PM 45.8025 -108.5206 286° West 111 128 3,600 -677 Descending Salt Lake Center
Fri 08:06:00 PM 45.8000 -108.5333 282° West  Level FlightAware Approximate

Login

Don't have an account? Register now (free) for customized features, flight alerts, and more!